Time;durP1;ratioP1;P1;durP2;ratioP2;P2;SDS_P1;SDS_P2;PMS_P1;PMS_P2;Temp;Humidity;BMP_temperature;BMP_pressure;BME280_temperature;BME280_humidity;BME280_pressure;Samples;Min_cycle;Max_cycle;Signal;HPM_P1;HPM_P2
2023/08/30 00:01:46;;;;;;;10.18;4.30;;;;;;;-144.73;100.00;54415.91;5024768;28;20022;-72
2023/08/30 00:04:12;;;;;;;10.55;4.72;;;;;;;-144.73;100.00;54420.00;5002904;28;20045;-72
2023/08/30 00:06:37;;;;;;;9.65;5.68;;;;;;;-144.73;100.00;54436.44;4997832;28;20053;-72
2023/08/30 00:09:03;;;;;;;9.13;4.97;;;;;;;-144.73;100.00;54428.22;5006550;28;20326;-73
2023/08/30 00:11:30;;;;;;;12.15;5.95;;;;;;;-144.73;100.00;54415.91;5009328;28;20168;-72
2023/08/30 00:14:05;;;;;;;10.32;4.57;;;;;;;-144.73;100.00;54448.75;5000625;28;20112;-72
2023/08/30 00:16:31;;;;;;;12.82;5.28;;;;;;;-144.73;100.00;54424.13;5021477;28;20030;-72
2023/08/30 00:18:56;;;;;;;12.10;5.88;;;;;;;-144.73;100.00;54456.97;5005657;28;20017;-72
2023/08/30 00:21:22;;;;;;;9.52;6.05;;;;;;;-144.73;100.00;54428.22;5000849;28;20041;-72
2023/08/30 00:23:47;;;;;;;7.28;4.13;;;;;;;-144.73;100.00;54440.53;5012149;28;20041;-72
2023/08/30 00:26:12;;;;;;;13.05;4.93;;;;;;;-144.73;100.00;54440.53;5022658;28;20032;-72
2023/08/30 00:28:38;;;;;;;11.23;5.60;;;;;;;-144.73;100.00;54440.53;5014270;28;20025;-72
2023/08/30 00:31:03;;;;;;;10.82;5.28;;;;;;;-144.73;100.00;54452.84;5006852;28;20041;-72
2023/08/30 00:33:28;;;;;;;7.82;5.10;;;;;;;-144.73;100.00;54424.13;5002884;28;20025;-72
2023/08/30 00:35:58;;;;;;;11.02;5.90;;;;;;;-144.73;100.00;54428.22;5013980;28;20162;-72
2023/08/30 00:38:24;;;;;;;14.65;7.15;;;;;;;-144.73;100.00;54411.81;4997811;28;20192;-72
2023/08/30 00:40:49;;;;;;;21.15;11.50;;;;;;;-144.73;100.00;54450.81;5006079;28;20577;-73
2023/08/30 00:43:14;;;;;;;17.27;7.22;;;;;;;-144.73;100.00;54415.91;5012462;28;20029;-72
2023/08/30 00:45:40;;;;;;;9.73;5.75;;;;;;;-144.73;100.00;54452.84;4997941;28;20034;-72
2023/08/30 00:48:06;;;;;;;8.82;5.57;;;;;;;-144.73;100.00;54438.50;5006571;28;20033;-72
2023/08/30 00:50:32;;;;;;;14.07;5.07;;;;;;;-144.73;100.00;54477.47;5014952;28;20061;-72
2023/08/30 00:52:58;;;;;;;10.57;5.72;;;;;;;-144.73;100.00;54448.75;4999736;28;20384;-72
2023/08/30 00:55:23;;;;;;;9.73;5.53;;;;;;;-144.73;100.00;54420.00;5015810;28;20116;-72
2023/08/30 00:57:49;;;;;;;12.68;5.82;;;;;;;-144.73;100.00;54450.81;4994583;28;20037;-72
2023/08/30 01:00:15;;;;;;;10.35;5.63;;;;;;;-144.73;100.00;54444.66;5015814;28;20030;-72
2023/08/30 01:02:40;;;;;;;9.18;5.25;;;;;;;-144.73;100.00;54407.69;4996183;28;20029;-72
2023/08/30 01:05:05;;;;;;;8.18;5.20;;;;;;;-144.73;100.00;54454.91;5005829;28;20041;-72
2023/08/30 01:07:31;;;;;;;10.85;5.93;;;;;;;-144.73;100.00;54440.53;5003913;28;20045;-72
2023/08/30 01:09:58;;;;;;;11.73;5.35;;;;;;;-144.73;100.00;54399.50;5002161;28;20030;-72
2023/08/30 01:12:39;;;;;;;10.40;5.55;;;;;;;-144.73;100.00;54465.16;4995176;28;20028;-72
2023/08/30 01:15:22;;;;;;;8.82;5.72;;;;;;;-144.73;100.00;54452.84;5001810;28;20033;-72
2023/08/30 01:17:48;;;;;;;8.10;5.30;;;;;;;-144.73;100.00;54444.66;4999818;28;20083;-72
2023/08/30 01:20:18;;;;;;;9.93;5.82;;;;;;;-144.73;100.00;54426.16;4998878;28;20026;-72
2023/08/30 01:22:55;;;;;;;7.10;5.28;;;;;;;-144.73;100.00;54444.66;4994969;28;20037;-72
2023/08/30 01:26:05;;;;;;;14.40;5.85;;;;;;;-144.73;100.00;54407.69;4997651;28;20036;-72
2023/08/30 01:28:32;;;;;;;9.20;5.53;;;;;;;-144.73;100.00;54417.97;4952808;28;20034;-72
2023/08/30 01:30:59;;;;;;;9.18;5.30;;;;;;;-144.73;100.00;54395.38;4951713;28;20078;-72
2023/08/30 01:33:26;;;;;;;11.60;5.40;;;;;;;-144.73;100.00;54422.06;4973795;28;20041;-72
2023/08/30 01:35:58;;;;;;;9.45;5.82;;;;;;;-144.73;100.00;54411.81;4996960;28;20052;-72
2023/08/30 01:38:24;;;;;;;9.33;5.07;;;;;;;-144.73;100.00;54428.22;4991885;28;20038;-72
2023/08/30 01:40:51;;;;;;;7.85;4.93;;;;;;;-144.73;100.00;54452.84;5008925;28;20086;-72
2023/08/30 01:43:18;;;;;;;12.82;5.45;;;;;;;-144.73;100.00;54411.81;4999773;28;20077;-72
2023/08/30 01:45:43;;;;;;;14.13;5.30;;;;;;;-144.73;100.00;54407.69;4994092;28;20088;-72
2023/08/30 01:48:12;;;;;;;9.57;5.60;;;;;;;-144.73;100.00;54436.44;4999938;28;20029;-73
2023/08/30 01:50:40;;;;;;;9.40;5.70;;;;;;;-144.73;100.00;54432.31;4998107;28;20125;-72
2023/08/30 01:53:06;;;;;;;14.93;6.53;;;;;;;-144.73;100.00;54415.91;5017769;28;20076;-72
2023/08/30 01:55:32;;;;;;;16.40;5.20;;;;;;;-144.73;100.00;54432.31;4998533;28;20034;-72
2023/08/30 01:57:58;;;;;;;11.07;5.43;;;;;;;-144.73;100.00;54424.13;5022402;28;20025;-72
2023/08/30 02:00:23;;;;;;;7.70;4.95;;;;;;;-144.73;100.00;54454.91;4998163;28;20103;-72
2023/08/30 02:02:49;;;;;;;11.10;5.68;;;;;;;-144.73;100.00;54440.53;5021294;28;20064;-72
2023/08/30 02:05:14;;;;;;;11.68;5.85;;;;;;;-144.73;100.00;54477.47;4999526;28;20112;-72
2023/08/30 02:07:48;;;;;;;10.65;4.88;;;;;;;-144.73;100.00;54436.44;4997704;28;20762;-72
2023/08/30 02:10:21;;;;;;;11.93;4.97;;;;;;;-144.73;100.00;54444.66;5015765;28;20497;-72
2023/08/30 02:12:49;;;;;;;9.13;5.93;;;;;;;-144.73;100.00;54432.31;4999481;28;20026;-72
2023/08/30 02:15:16;;;;;;;9.18;5.80;;;;;;;-144.73;100.00;54430.28;5024172;28;20026;-72
2023/08/30 02:17:41;;;;;;;12.90;6.15;;;;;;;-144.73;100.00;54440.53;5017300;28;20013;-72
2023/08/30 02:20:07;;;;;;;12.02;5.72;;;;;;;-144.73;100.00;54485.69;5005160;28;20056;-72
2023/08/30 02:22:33;;;;;;;11.05;6.20;;;;;;;-144.73;100.00;54415.91;5029415;28;20025;-72
2023/08/30 02:24:59;;;;;;;18.55;6.70;;;;;;;-144.73;100.00;54469.28;5000481;28;20493;-72
2023/08/30 02:27:24;;;;;;;9.50;6.07;;;;;;;-144.73;100.00;54411.81;5003779;28;20032;-72
2023/08/30 02:29:49;;;;;;;10.30;5.80;;;;;;;-144.73;100.00;54411.81;5004201;28;20048;-72
2023/08/30 02:32:20;;;;;;;8.27;5.88;;;;;;;-144.73;100.00;54432.31;5002782;28;20111;-72
2023/08/30 02:34:45;;;;;;;11.98;7.10;;;;;;;-144.73;100.00;54469.28;5005515;28;20040;-72
2023/08/30 02:37:11;;;;;;;13.02;6.07;;;;;;;-144.73;100.00;54456.97;5005646;28;20013;-72
2023/08/30 02:39:36;;;;;;;10.80;5.90;;;;;;;-144.73;100.00;54473.38;5017853;28;20143;-72
2023/08/30 02:42:02;;;;;;;10.93;6.10;;;;;;;-144.73;100.00;54461.06;4997679;28;20053;-73
2023/08/30 02:44:27;;;;;;;9.25;5.93;;;;;;;-144.73;100.00;54461.06;4998775;28;20092;-72
2023/08/30 02:46:52;;;;;;;13.65;5.68;;;;;;;-144.73;100.00;54448.75;5016728;28;20029;-72
2023/08/30 02:49:18;;;;;;;22.67;6.60;;;;;;;-144.73;100.00;54436.44;4997343;28;20025;-73
2023/08/30 02:51:43;;;;;;;8.15;5.35;;;;;;;-144.73;100.00;54428.22;5008541;28;20017;-72
2023/08/30 02:54:08;;;;;;;8.63;5.63;;;;;;;-144.73;100.00;54448.75;5003498;28;20028;-73
2023/08/30 02:56:34;;;;;;;12.40;6.60;;;;;;;-144.73;100.00;54481.59;5002912;28;20034;-72
2023/08/30 02:58:59;;;;;;;13.65;5.72;;;;;;;-144.73;100.00;54444.66;5006847;28;20033;-72
2023/08/30 03:01:24;;;;;;;14.07;7.45;;;;;;;-144.73;100.00;54448.75;5006366;28;20088;-72
2023/08/30 03:03:50;;;;;;;10.57;6.57;;;;;;;-144.73;100.00;54432.31;5006376;28;20030;-73
2023/08/30 03:06:15;;;;;;;16.08;6.88;;;;;;;-144.73;100.00;54432.31;5007305;28;20655;-73
2023/08/30 03:08:41;;;;;;;11.35;6.95;;;;;;;-144.73;100.00;54438.50;4998862;28;20022;-73
2023/08/30 03:11:11;;;;;;;10.15;7.63;;;;;;;-144.73;100.00;54467.22;5002421;28;20030;-73
2023/08/30 03:13:37;;;;;;;14.88;7.88;;;;;;;-144.73;100.00;54473.38;5022364;28;20064;-73
2023/08/30 03:16:12;;;;;;;16.55;9.38;;;;;;;-144.73;100.00;54463.13;5005226;28;20050;-73
2023/08/30 03:18:39;;;;;;;17.40;8.40;;;;;;;-144.73;100.00;54436.44;5014948;28;20029;-73
2023/08/30 03:21:04;;;;;;;17.25;8.57;;;;;;;-144.73;100.00;54444.66;5004435;28;20042;-73
2023/08/30 03:23:33;;;;;;;20.77;9.55;;;;;;;-144.73;100.00;54485.69;5005853;28;20030;-73
2023/08/30 03:26:00;;;;;;;12.70;7.97;;;;;;;-144.73;100.00;54461.06;5017835;28;20030;-73
2023/08/30 03:28:27;;;;;;;11.73;7.80;;;;;;;-144.73;100.00;54450.81;5002595;28;20101;-73
2023/08/30 03:30:52;;;;;;;18.42;10.30;;;;;;;-144.73;100.00;54461.06;5022887;28;20551;-73
2023/08/30 03:33:17;;;;;;;15.10;9.95;;;;;;;-144.73;100.00;54440.53;5005534;28;20056;-73
2023/08/30 03:35:43;;;;;;;16.25;9.88;;;;;;;-144.73;100.00;54473.38;5002206;28;20068;-73
2023/08/30 03:38:08;;;;;;;20.10;10.40;;;;;;;-144.73;100.00;54461.06;5002328;28;20377;-73
2023/08/30 03:40:33;;;;;;;15.40;9.65;;;;;;;-144.73;100.00;54448.75;4999829;28;20041;-73
2023/08/30 03:42:59;;;;;;;18.83;10.07;;;;;;;-144.73;100.00;54436.44;5000529;28;20021;-73
2023/08/30 03:45:24;;;;;;;18.42;10.18;;;;;;;-144.73;100.00;54440.53;4997272;28;20030;-73
2023/08/30 03:47:50;;;;;;;19.30;9.68;;;;;;;-144.73;100.00;54440.53;5003644;28;20037;-73
2023/08/30 03:50:15;;;;;;;17.90;11.57;;;;;;;-144.73;100.00;54489.81;5003352;28;20037;-73
2023/08/30 03:52:40;;;;;;;17.38;10.70;;;;;;;-144.73;100.00;54477.47;5002714;28;20091;-73
2023/08/30 03:55:06;;;;;;;17.42;11.02;;;;;;;-144.73;100.00;54440.53;5022392;28;20410;-73
2023/08/30 03:57:31;;;;;;;14.82;10.07;;;;;;;-144.73;100.00;54432.31;5020693;28;20032;-73
2023/08/30 03:59:57;;;;;;;16.58;11.00;;;;;;;-144.73;100.00;54444.66;5004080;28;20113;-73
2023/08/30 04:02:23;;;;;;;17.42;11.65;;;;;;;-144.73;100.00;54493.91;5020255;28;20022;-73
2023/08/30 04:04:48;;;;;;;16.70;12.07;;;;;;;-144.73;100.00;54424.13;4999101;28;20072;-73
2023/08/30 04:07:14;;;;;;;18.92;12.07;;;;;;;-144.73;100.00;54456.97;5020435;28;20021;-73
2023/08/30 04:09:40;;;;;;;17.73;12.45;;;;;;;-144.73;100.00;54469.28;5017320;28;20084;-73
2023/08/30 04:12:05;;;;;;;16.05;11.45;;;;;;;-144.73;100.00;54440.53;5004445;28;20041;-73
2023/08/30 04:14:31;;;;;;;18.88;12.90;;;;;;;-144.73;100.00;54465.16;5006939;28;20052;-73
2023/08/30 04:16:56;;;;;;;19.25;13.40;;;;;;;-144.73;100.00;54481.59;5000475;28;20022;-73
2023/08/30 04:19:21;;;;;;;17.45;11.73;;;;;;;-144.73;100.00;54473.38;5000727;28;20025;-73
2023/08/30 04:21:47;;;;;;;18.35;12.15;;;;;;;-144.73;100.00;54489.81;5002672;28;20044;-74
2023/08/30 04:24:14;;;;;;;18.15;11.27;;;;;;;-144.73;100.00;54452.84;5000786;28;20021;-74
2023/08/30 04:26:39;;;;;;;21.35;12.80;;;;;;;-144.73;100.00;54444.66;5002711;28;20052;-74
2023/08/30 04:29:05;;;;;;;20.67;13.13;;;;;;;-144.73;100.00;54477.47;5005167;28;20103;-74
2023/08/30 04:31:30;;;;;;;22.58;14.30;;;;;;;-144.73;100.00;54426.16;4997436;28;20045;-74
2023/08/30 04:33:56;;;;;;;20.80;14.90;;;;;;;-144.73;100.00;54491.84;4999233;28;20022;-75
2023/08/30 04:36:21;;;;;;;24.13;14.68;;;;;;;-144.73;100.00;54477.47;4996817;28;20111;-74
2023/08/30 04:38:47;;;;;;;23.50;14.15;;;;;;;-144.73;100.00;54417.97;5005012;28;20017;-75
2023/08/30 04:41:12;;;;;;;28.27;14.90;;;;;;;-144.73;100.00;54456.97;5001996;28;20026;-74
2023/08/30 04:43:38;;;;;;;24.15;15.73;;;;;;;-144.73;100.00;54465.16;5027483;28;20052;-74
2023/08/30 04:46:03;;;;;;;21.58;15.02;;;;;;;-144.73;100.00;54469.28;5020022;28;20096;-74
2023/08/30 04:48:28;;;;;;;19.83;14.90;;;;;;;-144.73;100.00;54477.47;4999949;28;20030;-75
2023/08/30 04:51:04;;;;;;;25.88;15.35;;;;;;;-144.73;100.00;54456.97;5005838;28;20109;-75
2023/08/30 04:53:30;;;;;;;24.65;17.30;;;;;;;-144.73;100.00;54440.53;5017209;28;20026;-74
2023/08/30 04:55:56;;;;;;;25.48;16.20;;;;;;;-144.73;100.00;54442.59;5004269;28;20057;-75
2023/08/30 04:58:21;;;;;;;23.55;14.57;;;;;;;-144.73;100.00;54473.38;5014252;28;20022;-75
2023/08/30 05:00:47;;;;;;;26.10;14.82;;;;;;;-144.73;100.00;54502.13;4997979;28;20411;-75
2023/08/30 05:03:12;;;;;;;22.15;15.98;;;;;;;-144.73;100.00;54481.59;4999198;28;20130;-75
2023/08/30 05:05:37;;;;;;;22.20;14.90;;;;;;;-144.73;100.00;54475.44;5001907;28;20084;-74
2023/08/30 05:08:03;;;;;;;27.80;16.10;;;;;;;-144.73;100.00;54461.06;5001236;28;20117;-75
2023/08/30 05:10:29;;;;;;;23.42;16.38;;;;;;;-144.73;100.00;54481.59;5001543;28;20092;-75
2023/08/30 05:12:55;;;;;;;20.02;14.80;;;;;;;-144.73;100.00;54415.91;5001257;28;20079;-75
2023/08/30 05:15:20;;;;;;;22.63;14.00;;;;;;;-144.73;100.00;54506.22;5000624;28;20042;-74
2023/08/30 05:17:46;;;;;;;20.65;14.18;;;;;;;-144.73;100.00;54456.97;5002772;28;20018;-75
2023/08/30 05:20:12;;;;;;;19.58;14.00;;;;;;;-144.73;100.00;54463.13;5001432;28;20029;-75
2023/08/30 05:22:37;;;;;;;22.38;14.50;;;;;;;-144.73;100.00;54452.84;5000901;28;20116;-75
2023/08/30 05:25:03;;;;;;;16.63;12.82;;;;;;;-144.73;100.00;54452.84;5021495;28;20029;-75
2023/08/30 05:27:28;;;;;;;22.10;13.82;;;;;;;-144.73;100.00;54448.75;5025067;28;20032;-75
2023/08/30 05:29:55;;;;;;;19.48;13.25;;;;;;;-144.73;100.00;54465.16;5004789;28;20049;-75
2023/08/30 05:32:21;;;;;;;20.23;12.77;;;;;;;-144.73;100.00;54461.06;5009526;28;20033;-74
2023/08/30 05:34:47;;;;;;;19.73;11.73;;;;;;;-144.73;100.00;54456.97;4998571;28;20034;-75
2023/08/30 05:37:12;;;;;;;19.33;12.32;;;;;;;-144.73;100.00;54461.06;5004761;28;20032;-75
2023/08/30 05:39:38;;;;;;;18.75;11.35;;;;;;;-144.73;100.00;54493.91;5001233;28;20088;-75
2023/08/30 05:42:03;;;;;;;16.42;10.93;;;;;;;-144.73;100.00;54483.66;5002213;28;20037;-75
2023/08/30 05:44:29;;;;;;;15.02;11.38;;;;;;;-144.73;100.00;54493.91;5001026;28;20044;-75
2023/08/30 05:46:54;;;;;;;16.92;10.88;;;;;;;-144.73;100.00;54456.97;5001791;28;20025;-75
2023/08/30 05:49:19;;;;;;;18.88;10.77;;;;;;;-144.73;100.00;54481.59;5007687;28;20021;-75
2023/08/30 05:51:45;;;;;;;13.40;10.38;;;;;;;-144.73;100.00;54456.97;5008378;28;20042;-74
2023/08/30 05:54:10;;;;;;;11.95;10.20;;;;;;;-144.73;100.00;54502.13;5008747;28;20018;-75
2023/08/30 05:56:36;;;;;;;13.75;9.85;;;;;;;-144.73;100.00;54475.44;5024687;28;20064;-74
2023/08/30 05:59:01;;;;;;;15.02;9.73;;;;;;;-144.73;100.00;54481.59;4998444;28;20018;-74
2023/08/30 06:01:27;;;;;;;15.98;9.60;;;;;;;-144.73;100.00;54465.16;5021523;28;20034;-74
2023/08/30 06:03:52;;;;;;;12.43;9.43;;;;;;;-144.73;100.00;54448.75;5018496;28;20029;-74
2023/08/30 06:06:18;;;;;;;17.80;8.52;;;;;;;-144.73;100.00;54456.97;5023594;28;20389;-75
2023/08/30 06:08:43;;;;;;;14.23;9.45;;;;;;;-144.73;100.00;54452.84;5001764;28;20026;-75
2023/08/30 06:11:08;;;;;;;15.23;8.43;;;;;;;-144.73;100.00;54456.97;5006218;28;20041;-75
2023/08/30 06:13:34;;;;;;;14.75;8.88;;;;;;;-144.73;100.00;54444.66;5005871;28;20090;-75
2023/08/30 06:15:59;;;;;;;14.55;9.32;;;;;;;-144.73;100.00;54452.84;5000560;28;20029;-75
2023/08/30 06:18:29;;;;;;;17.92;9.95;;;;;;;-144.73;100.00;54498.00;5005011;28;20032;-75
2023/08/30 06:20:55;;;;;;;16.02;8.80;;;;;;;-144.73;100.00;54413.84;4999620;28;20026;-75
2023/08/30 06:23:20;;;;;;;20.73;9.10;;;;;;;-144.73;100.00;54448.75;5021731;28;20040;-75
2023/08/30 06:25:56;;;;;;;14.68;8.90;;;;;;;-144.73;100.00;54461.06;5000810;28;20038;-74
2023/08/30 06:28:22;;;;;;;23.63;9.40;;;;;;;-144.73;100.00;54483.66;5028024;28;20060;-74
2023/08/30 06:30:47;;;;;;;15.95;10.38;;;;;;;-144.73;100.00;54469.28;5005514;28;20026;-74
2023/08/30 06:33:13;;;;;;;19.33;9.35;;;;;;;-144.73;100.00;54473.38;4998424;28;20358;-74
2023/08/30 06:35:39;;;;;;;16.67;9.63;;;;;;;-144.73;100.00;54436.44;4996924;28;20030;-75
2023/08/30 06:38:05;;;;;;;16.73;8.98;;;;;;;-144.73;100.00;54469.28;5020459;28;20018;-74
2023/08/30 06:40:30;;;;;;;23.52;9.02;;;;;;;-144.73;100.00;54481.59;4999510;28;20029;-74
2023/08/30 06:42:56;;;;;;;31.90;8.00;;;;;;;-144.73;100.00;54469.28;5032168;28;20025;-74
2023/08/30 06:45:22;;;;;;;14.90;9.43;;;;;;;-144.73;100.00;54452.84;5033553;28;20045;-72
2023/08/30 06:47:49;;;;;;;19.15;9.02;;;;;;;-144.73;100.00;54469.28;5004822;28;20029;-71
2023/08/30 06:50:14;;;;;;;15.55;8.07;;;;;;;-144.73;100.00;54432.31;5013879;28;20053;-72
2023/08/30 06:52:40;;;;;;;16.70;7.43;;;;;;;-144.73;100.00;54442.59;5032959;28;20424;-73
2023/08/30 06:55:05;;;;;;;17.05;8.30;;;;;;;-144.73;100.00;54432.31;5033592;28;20026;-73
2023/08/30 06:57:31;;;;;;;11.23;8.50;;;;;;;-144.73;100.00;54450.81;5015374;28;20039;-72
2023/08/30 06:59:56;;;;;;;15.23;8.50;;;;;;;-144.73;100.00;54432.31;5013140;28;20060;-72
2023/08/30 07:02:22;;;;;;;16.85;9.23;;;;;;;-144.73;100.00;54432.31;5012780;28;20080;-72
2023/08/30 07:04:47;;;;;;;23.30;9.00;;;;;;;-144.73;100.00;54428.22;5015357;28;20026;-72
2023/08/30 07:07:13;;;;;;;19.48;9.60;;;;;;;-144.73;100.00;54463.13;5033528;28;20087;-72
2023/08/30 07:09:39;;;;;;;14.15;9.70;;;;;;;-144.73;100.00;54465.16;5031406;28;20045;-72
2023/08/30 07:12:05;;;;;;;19.27;11.13;;;;;;;-144.73;100.00;54473.38;5016373;28;20464;-72
2023/08/30 07:14:30;;;;;;;15.88;11.15;;;;;;;-144.73;100.00;54428.22;5009094;28;20026;-73
2023/08/30 07:16:56;;;;;;;19.10;10.48;;;;;;;-144.73;100.00;54440.53;5011070;28;20090;-73
2023/08/30 07:19:21;;;;;;;15.98;10.68;;;;;;;-144.73;100.00;54407.69;5002130;28;20021;-74
2023/08/30 07:21:46;;;;;;;18.95;9.32;;;;;;;-144.73;100.00;54444.66;4996984;28;20036;-72
2023/08/30 07:24:12;;;;;;;14.60;8.90;;;;;;;-144.73;100.00;54465.16;5005712;28;20112;-72
2023/08/30 07:26:37;;;;;;;15.27;8.23;;;;;;;-144.73;100.00;54450.81;4993174;28;20124;-72
2023/08/30 07:29:06;;;;;;;15.98;9.27;;;;;;;-144.73;100.00;54446.69;4992321;28;20532;-72
2023/08/30 07:31:32;;;;;;;12.18;7.78;;;;;;;-144.73;100.00;54440.53;4991837;28;20038;-72
2023/08/30 07:33:59;;;;;;;18.77;8.52;;;;;;;-144.73;100.00;54424.13;5008479;28;20465;-74
2023/08/30 07:36:25;;;;;;;19.60;7.50;;;;;;;-144.73;100.00;54440.53;4995296;28;20485;-72
2023/08/30 07:38:50;;;;;;;25.25;7.65;;;;;;;-144.73;100.00;54436.44;4995119;28;20018;-73
2023/08/30 07:41:16;;;;;;;13.10;8.35;;;;;;;-144.73;100.00;54399.50;5012566;28;20037;-73
2023/08/30 07:43:41;;;;;;;16.20;8.38;;;;;;;-144.73;100.00;54456.97;4992390;28;20022;-72
2023/08/30 07:46:07;;;;;;;12.40;8.10;;;;;;;-144.73;100.00;54456.97;4991968;28;20045;-74
2023/08/30 07:48:32;;;;;;;15.15;7.82;;;;;;;-144.73;100.00;54432.31;4992618;28;20133;-74
2023/08/30 07:50:58;;;;;;;16.02;10.75;;;;;;;-144.73;100.00;54450.81;4992256;28;20042;-73
2023/08/30 07:53:23;;;;;;;17.33;8.38;;;;;;;-144.73;100.00;54411.81;5003685;28;20029;-73
2023/08/30 07:55:52;;;;;;;19.52;7.22;;;;;;;-144.73;100.00;54428.22;5023133;28;20114;-74
2023/08/30 07:58:18;;;;;;;23.23;7.10;;;;;;;-144.73;100.00;54440.53;4996162;28;20136;-74
2023/08/30 08:00:43;;;;;;;13.52;7.90;;;;;;;-144.73;100.00;54413.84;4990411;28;20093;-73
2023/08/30 08:03:10;;;;;;;12.93;7.43;;;;;;;-144.73;100.00;54420.00;4993776;28;20029;-73
2023/08/30 08:05:36;;;;;;;14.55;8.02;;;;;;;-144.73;100.00;54438.50;4991771;28;20034;-75
2023/08/30 08:08:02;;;;;;;17.05;7.95;;;;;;;-144.73;100.00;54413.84;5000710;28;20025;-73
2023/08/30 08:10:31;;;;;;;19.67;9.00;;;;;;;-144.73;100.00;54413.84;4995430;28;20037;-73
2023/08/30 08:12:56;;;;;;;16.33;7.80;;;;;;;-144.73;100.00;54407.69;4993835;28;20029;-75
2023/08/30 08:15:22;;;;;;;18.20;8.43;;;;;;;-144.73;100.00;54444.66;5004377;28;20034;-73
2023/08/30 08:17:47;;;;;;;14.07;8.20;;;;;;;-144.73;100.00;54420.00;5014837;28;20045;-73
2023/08/30 08:20:13;;;;;;;16.38;8.15;;;;;;;-144.73;100.00;54463.13;5017270;28;20029;-74
2023/08/30 08:22:39;;;;;;;15.52;8.18;;;;;;;-144.73;100.00;54424.13;5008847;28;20026;-74
2023/08/30 08:25:04;;;;;;;12.60;8.32;;;;;;;-144.73;100.00;54420.00;5003754;28;20026;-75
2023/08/30 08:27:30;;;;;;;16.83;9.13;;;;;;;-144.73;100.00;54389.22;5014223;28;20029;-74
2023/08/30 08:29:55;;;;;;;17.00;8.70;;;;;;;-144.73;100.00;54407.69;4997023;28;20033;-74
2023/08/30 08:32:21;;;;;;;15.95;8.45;;;;;;;-144.73;100.00;54411.81;5005897;28;20032;-75
2023/08/30 08:34:46;;;;;;;14.23;8.98;;;;;;;-144.73;100.00;54432.31;4997607;28;20036;-74
2023/08/30 08:37:11;;;;;;;15.80;9.85;;;;;;;-144.73;100.00;54461.06;4996423;28;20033;-75
2023/08/30 08:39:37;;;;;;;13.80;10.15;;;;;;;-144.73;100.00;54411.81;5011019;28;20037;-75
2023/08/30 08:42:03;;;;;;;20.48;10.57;;;;;;;-144.73;100.00;54465.16;5006468;28;20067;-74
2023/08/30 08:44:32;;;;;;;17.70;10.20;;;;;;;-144.73;100.00;54448.75;4993632;28;20118;-74
2023/08/30 08:46:59;;;;;;;18.50;10.57;;;;;;;-144.73;100.00;54411.81;5008492;28;20018;-74
2023/08/30 08:49:28;;;;;;;15.98;9.20;;;;;;;-144.73;100.00;54454.91;5016471;28;20029;-74
2023/08/30 08:51:54;;;;;;;20.40;9.50;;;;;;;-144.73;100.00;54395.38;5002292;28;20029;-76
2023/08/30 08:54:19;;;;;;;16.92;8.27;;;;;;;-144.73;100.00;54374.84;4988065;28;20097;-73
2023/08/30 08:56:45;;;;;;;20.08;9.60;;;;;;;-144.73;100.00;54407.69;4997454;28;20121;-74
2023/08/30 08:59:11;;;;;;;15.30;9.43;;;;;;;-144.73;100.00;54378.97;4995666;28;20226;-74
2023/08/30 09:01:39;;;;;;;23.80;8.57;;;;;;;-144.73;100.00;54415.91;4992947;28;20109;-74
2023/08/30 09:04:10;;;;;;;13.50;8.95;;;;;;;-144.73;100.00;54411.81;4987986;28;20045;-75
2023/08/30 09:06:36;;;;;;;20.02;8.93;;;;;;;-144.73;100.00;54407.69;4993604;28;20042;-73
2023/08/30 09:09:06;;;;;;;16.10;8.93;;;;;;;-144.73;100.00;54452.84;4987924;28;20026;-72
2023/08/30 09:11:32;;;;;;;13.45;8.07;;;;;;;-144.73;100.00;54407.69;5009518;28;20033;-73
2023/08/30 09:13:57;;;;;;;14.65;7.57;;;;;;;-144.73;100.00;54465.16;5010208;28;20029;-72
2023/08/30 09:16:23;;;;;;;23.40;8.80;;;;;;;-144.73;100.00;54420.00;5000433;28;20033;-73
2023/08/30 09:19:03;;;;;;;15.15;7.70;;;;;;;-144.73;100.00;54432.31;5010730;28;20122;-74
2023/08/30 09:21:29;;;;;;;11.10;7.60;;;;;;;-144.73;100.00;54461.06;5027727;28;20034;-72
2023/08/30 09:24:02;;;;;;;20.55;6.95;;;;;;;-144.73;100.00;54436.44;5011801;28;20104;-73
2023/08/30 09:26:31;;;;;;;14.60;6.70;;;;;;;-144.73;100.00;54428.22;5013973;28;20071;-73
2023/08/30 09:29:04;;;;;;;12.70;6.55;;;;;;;-144.73;100.00;54440.53;5009044;28;20026;-73
2023/08/30 09:31:37;;;;;;;12.35;6.00;;;;;;;-144.73;99.67;54424.13;4993594;28;20052;-73
2023/08/30 09:34:03;;;;;;;15.55;5.80;;;;;;;-144.73;96.27;54426.16;5009047;28;20049;-74
2023/08/30 09:36:36;;;;;;;17.10;6.32;;;;;;;-144.73;97.95;54391.28;5000662;28;20053;-72
2023/08/30 09:39:12;;;;;;;17.83;6.22;;;;;;;-144.73;94.82;54395.38;5005141;28;20029;-73
2023/08/30 09:41:42;;;;;;;11.85;5.85;;;;;;;-144.73;99.01;54438.50;5001358;28;20083;-72
2023/08/30 09:44:12;;;;;;;11.07;5.65;;;;;;;-144.73;97.46;54391.28;5010808;28;20051;-73
2023/08/30 09:46:43;;;;;;;13.00;6.00;;;;;;;-144.73;95.71;54407.69;4991288;28;20041;-73
2023/08/30 09:49:09;;;;;;;10.23;6.13;;;;;;;-144.73;93.47;54411.81;4991500;28;20025;-73
2023/08/30 09:51:37;;;;;;;12.88;6.32;;;;;;;-144.73;93.88;54391.28;5001836;28;20060;-74
2023/08/30 09:54:05;;;;;;;13.07;6.10;;;;;;;-144.73;93.98;54391.28;5010102;28;20120;-74
2023/08/30 09:56:32;;;;;;;15.00;5.97;;;;;;;-144.73;90.82;54424.13;5016238;28;20039;-74
2023/08/30 09:58:59;;;;;;;10.90;5.22;;;;;;;-144.73;90.31;54378.97;5028114;28;20037;-73
2023/08/30 10:01:27;;;;;;;11.38;6.32;;;;;;;-144.73;88.91;54370.75;5016817;28;20129;-75
2023/08/30 10:03:56;;;;;;;11.15;5.38;;;;;;;-144.73;87.19;54407.69;4990746;28;20032;-74
2023/08/30 10:06:24;;;;;;;11.75;5.90;;;;;;;-144.73;89.18;54383.06;4981894;28;20088;-74
2023/08/30 10:08:53;;;;;;;14.63;5.72;;;;;;;-144.73;94.63;54440.53;4986332;28;20061;-76
2023/08/30 10:11:19;;;;;;;10.65;5.30;;;;;;;-144.73;97.34;54409.75;4997657;28;20046;-74
2023/08/30 10:13:47;;;;;;;11.95;5.90;;;;;;;-144.73;100.00;54407.69;4997513;28;20041;-74
2023/08/30 10:16:19;;;;;;;16.27;6.65;;;;;;;-144.73;100.00;54424.13;4997876;28;20042;-73
2023/08/30 10:18:49;;;;;;;15.18;6.47;;;;;;;-144.73;100.00;54432.31;4994897;28;20022;-73
2023/08/30 10:21:18;;;;;;;10.40;6.55;;;;;;;-144.73;100.00;54436.44;5014866;28;20030;-74
2023/08/30 10:23:46;;;;;;;15.30;6.13;;;;;;;-144.73;100.00;54395.38;5011291;28;20021;-74
2023/08/30 10:26:12;;;;;;;21.75;6.63;;;;;;;-144.73;100.00;54456.97;5000258;28;20079;-74
2023/08/30 10:28:39;;;;;;;18.30;6.65;;;;;;;-144.73;100.00;54415.91;5011882;28;20043;-73
2023/08/30 10:31:05;;;;;;;11.27;5.80;;;;;;;-144.73;97.99;54407.69;4995636;28;20113;-74
2023/08/30 10:33:30;;;;;;;13.18;7.05;;;;;;;-144.73;92.90;54415.91;4994993;28;20113;-74
2023/08/30 10:36:04;;;;;;;14.82;5.72;;;;;;;-144.73;91.76;54411.81;4998585;28;20210;-74
2023/08/30 10:38:32;;;;;;;12.13;4.53;;;;;;;-144.73;92.86;54407.69;5009803;28;20492;-74
2023/08/30 10:41:22;;;;;;;13.38;5.85;;;;;;;-144.73;89.65;54424.13;4999821;28;20034;-73
2023/08/30 10:43:51;;;;;;;13.48;5.55;;;;;;;-144.73;90.05;54387.19;5009830;28;20040;-74
2023/08/30 10:46:16;;;;;;;11.98;5.10;;;;;;;-144.73;91.90;54407.69;5013653;28;20087;-73
2023/08/30 10:48:42;;;;;;;11.65;6.03;;;;;;;-144.73;93.09;54440.53;5015666;28;20025;-73
2023/08/30 10:51:38;;;;;;;12.77;4.70;;;;;;;-144.73;87.66;54415.91;4994612;28;20057;-73
2023/08/30 10:54:11;;;;;;;7.15;3.83;;;;;;;-144.73;83.88;54387.19;4993854;28;20022;-74
2023/08/30 10:56:55;;;;;;;13.45;4.18;;;;;;;-144.73;80.10;54428.22;5006400;28;20034;-73
2023/08/30 10:59:23;;;;;;;7.50;4.68;;;;;;;-144.73;80.41;54407.69;5011993;28;20040;-73
2023/08/30 11:01:55;;;;;;;9.90;4.13;;;;;;;-144.73;78.90;54370.75;4997038;28;20022;-74